Time;durP1;ratioP1;P1;durP2;ratioP2;P2;SDS_P1;SDS_P2;PMS_P1;PMS_P2;Temp;Humidity;BMP_temperature;BMP_pressure;BME280_temperature;BME280_humidity;BME280_pressure;Samples;Min_cycle;Max_cycle;Signal;HPM_P1;HPM_P2
2022/01/04 00:01:20;;;;;;;;;;;7.10;99.90;;;;;;5020736;28;19922;-78
2022/01/04 00:03:45;;;;;;;;;;;7.20;99.90;;;;;;5036341;28;19921;-78
2022/01/04 00:06:11;;;;;;;;;;;7.20;99.90;;;;;;5037062;28;19925;-78
2022/01/04 00:08:36;;;;;;;;;;;7.20;99.90;;;;;;5037172;28;19983;-78
2022/01/04 00:11:19;;;;;;;;;;;7.20;99.90;;;;;;5020605;28;19932;-77
2022/01/04 00:13:45;;;;;;;;;;;7.20;99.90;;;;;;5019690;28;20366;-77
2022/01/04 00:16:11;;;;;;;;;;;7.10;99.90;;;;;;5036918;28;19944;-77
2022/01/04 00:18:37;;;;;;;;;;;7.10;99.90;;;;;;5037394;28;20011;-78
2022/01/04 00:21:03;;;;;;;;;;;7.10;99.90;;;;;;5020631;28;19928;-78
2022/01/04 00:23:29;;;;;;;;;;;7.10;99.90;;;;;;5020148;28;19929;-78
2022/01/04 00:25:54;;;;;;;;;;;7.10;99.90;;;;;;5020630;28;19921;-78
2022/01/04 00:28:20;;;;;;;;;;;7.10;99.90;;;;;;5036066;28;19925;-78
2022/01/04 00:30:45;;;;;;;;;;;7.10;99.90;;;;;;5020128;28;19925;-78
2022/01/04 00:33:12;;;;;;;;;;;7.10;99.90;;;;;;5020043;28;19921;-77
2022/01/04 00:35:38;;;;;;;;;;;7.10;99.90;;;;;;5020748;28;19925;-77
2022/01/04 00:38:04;;;;;;;;;;;7.10;99.90;;;;;;5020179;28;20498;-77
2022/01/04 00:40:29;;;;;;;;;;;7.10;99.90;;;;;;5020358;28;20012;-77
2022/01/04 00:42:55;;;;;;;;;;;7.10;99.90;;;;;;5019832;28;19932;-77
2022/01/04 00:45:21;;;;;;;;;;;7.10;99.90;;;;;;5020330;28;19925;-77
2022/01/04 00:50:22;;;;;;;;;;;7.10;99.90;;;;;;5036832;28;19932;-77
2022/01/04 00:52:49;;;;;;;;;;;7.10;99.90;;;;;;5036537;28;20342;-78
2022/01/04 00:55:14;;;;;;;;;;;7.10;99.90;;;;;;5020200;28;19928;-77
2022/01/04 00:57:40;;;;;;;;;;;7.10;99.90;;;;;;5036520;28;19921;-77
2022/01/04 01:00:06;;;;;;;;;;;7.10;99.90;;;;;;5036737;28;19972;-77
2022/01/04 01:02:32;;;;;;;;;;;7.10;99.90;;;;;;5036991;28;20368;-77
2022/01/04 01:04:57;;;;;;;;;;;7.20;99.90;;;;;;5018949;28;19972;-77
2022/01/04 01:07:23;;;;;;;;;;;7.20;99.90;;;;;;5016420;28;19929;-77
2022/01/04 01:10:13;;;;;;;;;;;7.30;99.90;;;;;;5033243;28;19925;-77
2022/01/04 01:12:39;;;;;;;;;;;7.30;99.90;;;;;;5033494;28;19921;-77
2022/01/04 01:15:05;;;;;;;;;;;7.20;99.90;;;;;;5033402;28;19928;-77
2022/01/04 01:17:30;;;;;;;;;;;7.30;99.90;;;;;;5033207;28;20039;-77
2022/01/04 01:19:56;;;;;;;;;;;7.20;99.90;;;;;;5033166;28;19979;-77
2022/01/04 01:22:22;;;;;;;;;;;7.20;99.90;;;;;;5033437;28;20016;-77
2022/01/04 01:24:47;;;;;;;;;;;7.30;99.90;;;;;;5033051;28;19928;-77
2022/01/04 01:27:13;;;;;;;;;;;7.20;99.90;;;;;;5016469;28;19984;-77
2022/01/04 01:29:38;;;;;;;;;;;7.20;99.90;;;;;;5016685;28;19925;-77
2022/01/04 01:32:04;;;;;;;;;;;7.20;99.90;;;;;;5033152;28;20274;-77
2022/01/04 01:34:29;;;;;;;;;;;7.20;99.90;;;;;;5032543;28;19928;-77
2022/01/04 01:36:55;;;;;;;;;;;7.30;99.90;;;;;;5032595;28;19983;-77
2022/01/04 01:39:20;;;;;;;;;;;7.20;99.90;;;;;;5016521;28;19932;-77
2022/01/04 01:41:46;;;;;;;;;;;7.30;99.90;;;;;;5016407;28;19928;-77
2022/01/04 01:44:11;;;;;;;;;;;7.20;99.90;;;;;;5032641;28;20452;-77
2022/01/04 01:46:37;;;;;;;;;;;7.20;99.90;;;;;;5016099;28;20019;-77
2022/01/04 01:49:02;;;;;;;;;;;7.20;99.90;;;;;;5015962;28;19921;-77
2022/01/04 01:51:28;;;;;;;;;;;7.20;99.90;;;;;;5016027;28;19925;-77
2022/01/04 01:53:54;;;;;;;;;;;7.20;99.90;;;;;;5016002;28;19927;-77
2022/01/04 01:56:19;;;;;;;;;;;7.20;99.90;;;;;;5032586;28;19976;-77
2022/01/04 01:58:45;;;;;;;;;;;7.20;99.90;;;;;;5032635;28;19921;-77
2022/01/04 02:01:11;;;;;;;;;;;7.20;99.90;;;;;;5015792;28;20020;-77
2022/01/04 02:03:37;;;;;;;;;;;7.20;99.90;;;;;;5015792;28;20012;-77
2022/01/04 02:06:04;;;;;;;;;;;7.20;99.90;;;;;;5031956;28;21281;-77
2022/01/04 02:08:30;;;;;;;;;;;7.20;99.90;;;;;;5015429;28;19935;-77
2022/01/04 02:10:59;;;;;;;;;;;7.20;99.90;;;;;;5032385;28;20305;-77
2022/01/04 02:13:25;;;;;;;;;;;7.20;99.90;;;;;;5032204;28;19931;-77
2022/01/04 02:15:51;;;;;;;;;;;7.20;99.90;;;;;;5015615;28;19937;-77
2022/01/04 02:18:17;;;;;;;;;;;7.30;99.90;;;;;;5031821;28;20334;-77
2022/01/04 02:20:42;;;;;;;;;;;7.30;99.90;;;;;;5015525;28;20008;-77
2022/01/04 02:23:08;;;;;;;;;;;7.30;99.90;;;;;;5031802;28;19928;-77
2022/01/04 02:25:34;;;;;;;;;;;7.30;99.90;;;;;;5031873;28;19921;-77
2022/01/04 02:28:00;;;;;;;;;;;7.30;99.90;;;;;;5031770;28;19934;-77
2022/01/04 02:30:25;;;;;;;;;;;7.40;99.90;;;;;;5015517;28;19921;-77
2022/01/04 02:32:51;;;;;;;;;;;7.30;99.90;;;;;;5015302;28;20400;-77
2022/01/04 02:35:18;;;;;;;;;;;7.40;99.90;;;;;;5015086;28;20304;-77
2022/01/04 02:37:44;;;;;;;;;;;7.40;99.90;;;;;;5031279;28;20328;-77
2022/01/04 02:40:10;;;;;;;;;;;7.40;99.90;;;;;;5015138;28;19928;-77
2022/01/04 02:42:36;;;;;;;;;;;7.40;99.90;;;;;;5031480;28;20006;-77
2022/01/04 02:45:02;;;;;;;;;;;7.40;99.90;;;;;;5015433;28;20366;-77
2022/01/04 02:47:28;;;;;;;;;;;7.40;99.90;;;;;;5014942;28;20016;-77
2022/01/04 02:49:54;;;;;;;;;;;7.40;99.90;;;;;;5014957;28;19921;-77
2022/01/04 02:52:20;;;;;;;;;;;7.40;99.90;;;;;;5031426;28;20397;-78
2022/01/04 02:54:45;;;;;;;;;;;7.50;99.90;;;;;;5031625;28;19972;-78
2022/01/04 02:57:10;;;;;;;;;;;7.50;99.90;;;;;;5014901;28;19922;-77
2022/01/04 02:59:36;;;;;;;;;;;7.50;99.90;;;;;;5015251;28;19921;-77
2022/01/04 03:02:02;;;;;;;;;;;7.50;99.90;;;;;;5031470;28;19928;-77
2022/01/04 03:04:28;;;;;;;;;;;7.50;99.90;;;;;;5014535;28;19925;-77
2022/01/04 03:06:53;;;;;;;;;;;7.50;99.90;;;;;;5031026;28;20094;-77
2022/01/04 03:09:19;;;;;;;;;;;7.50;99.90;;;;;;5013905;28;19956;-77
2022/01/04 03:11:44;;;;;;;;;;;7.60;99.90;;;;;;5031232;28;19921;-77
2022/01/04 03:14:09;;;;;;;;;;;7.50;99.90;;;;;;5014508;28;19921;-77
2022/01/04 03:16:35;;;;;;;;;;;7.60;99.90;;;;;;5031183;28;20012;-77
2022/01/04 03:19:06;;;;;;;;;;;7.50;99.90;;;;;;5014386;28;20301;-78
2022/01/04 03:21:38;;;;;;;;;;;7.60;99.90;;;;;;5031060;28;19925;-77
2022/01/04 03:24:05;;;;;;;;;;;7.50;99.90;;;;;;5031118;28;19921;-77
2022/01/04 03:26:30;;;;;;;;;;;7.60;99.90;;;;;;5031082;28;20004;-77
2022/01/04 03:28:56;;;;;;;;;;;7.70;99.90;;;;;;5013655;28;20528;-76
2022/01/04 03:31:22;;;;;;;;;;;7.50;99.90;;;;;;5030790;28;20007;-77
2022/01/04 03:33:48;;;;;;;;;;;7.50;99.90;;;;;;5030521;28;19921;-77
2022/01/04 03:36:14;;;;;;;;;;;7.50;99.90;;;;;;5030529;28;20013;-77
2022/01/04 03:38:40;;;;;;;;;;;7.50;99.90;;;;;;5014237;28;19921;-77
2022/01/04 03:41:08;;;;;;;;;;;7.60;99.90;;;;;;5014476;28;19928;-77
2022/01/04 03:43:34;;;;;;;;;;;7.50;99.90;;;;;;5030528;28;19979;-77
2022/01/04 03:45:59;;;;;;;;;;;7.60;99.90;;;;;;5030372;28;19921;-77
2022/01/04 03:48:25;;;;;;;;;;;7.60;99.90;;;;;;5030371;28;19932;-77
2022/01/04 03:50:50;;;;;;;;;;;7.50;99.90;;;;;;5014110;28;19925;-77
2022/01/04 03:53:16;;;;;;;;;;;7.50;99.90;;;;;;5030406;28;19925;-77
2022/01/04 03:55:41;;;;;;;;;;;7.50;99.90;;;;;;5030742;28;19947;-77
2022/01/04 03:58:06;;;;;;;;;;;7.40;99.90;;;;;;5030594;28;20305;-77
2022/01/04 04:00:32;;;;;;;;;;;7.40;99.90;;;;;;5014040;28;20000;-77
2022/01/04 04:02:57;;;;;;;;;;;7.50;99.90;;;;;;5013691;28;19921;-77
2022/01/04 04:05:23;;;;;;;;;;;7.50;99.90;;;;;;5014173;28;19928;-78
2022/01/04 04:07:48;;;;;;;;;;;7.50;99.90;;;;;;5030435;28;19925;-77
2022/01/04 04:10:14;;;;;;;;;;;7.50;99.90;;;;;;5030594;28;19944;-78
2022/01/04 04:12:39;;;;;;;;;;;7.60;99.90;;;;;;5013686;28;19928;-77
2022/01/04 04:15:08;;;;;;;;;;;7.60;99.90;;;;;;5030354;28;20010;-78
2022/01/04 04:17:35;;;;;;;;;;;7.60;99.90;;;;;;5030053;28;20377;-77
2022/01/04 04:20:00;;;;;;;;;;;7.60;99.90;;;;;;5030541;28;19921;-77
2022/01/04 04:22:26;;;;;;;;;;;7.60;99.90;;;;;;5014184;28;19928;-77
2022/01/04 04:24:51;;;;;;;;;;;7.60;99.90;;;;;;5013648;28;19970;-77
2022/01/04 04:27:17;;;;;;;;;;;7.60;99.90;;;;;;5014059;28;19925;-77
2022/01/04 04:29:42;;;;;;;;;;;7.60;99.90;;;;;;5030274;28;19968;-78
2022/01/04 04:32:08;;;;;;;;;;;7.60;99.90;;;;;;5030617;28;19925;-78
2022/01/04 04:34:34;;;;;;;;;;;7.60;99.90;;;;;;5029817;28;19921;-78
2022/01/04 04:36:59;;;;;;;;;;;7.60;99.90;;;;;;5013617;28;19921;-78
2022/01/04 04:39:25;;;;;;;;;;;7.60;99.90;;;;;;5014094;28;19964;-78
2022/01/04 04:41:50;;;;;;;;;;;7.60;99.90;;;;;;5017573;28;19921;-78
2022/01/04 04:44:16;;;;;;;;;;;7.60;99.90;;;;;;5033498;28;19921;-78
2022/01/04 04:46:41;;;;;;;;;;;7.60;99.90;;;;;;5034027;28;19966;-78
2022/01/04 04:49:07;;;;;;;;;;;7.70;99.90;;;;;;5017062;28;19929;-79
2022/01/04 04:51:32;;;;;;;;;;;7.70;99.90;;;;;;5017503;28;19976;-79
2022/01/04 04:53:58;;;;;;;;;;;7.70;99.90;;;;;;5017181;28;19921;-79
2022/01/04 04:56:23;;;;;;;;;;;7.70;99.90;;;;;;5033949;28;19928;-79
2022/01/04 04:58:49;;;;;;;;;;;7.70;99.90;;;;;;5017171;28;19921;-78
2022/01/04 05:01:14;;;;;;;;;;;7.80;99.90;;;;;;5016942;28;19921;-79
2022/01/04 05:03:40;;;;;;;;;;;7.70;99.90;;;;;;5016945;28;19921;-78
2022/01/04 05:06:05;;;;;;;;;;;7.70;99.90;;;;;;5016906;28;19982;-78
2022/01/04 05:08:31;;;;;;;;;;;7.70;99.90;;;;;;5016864;28;20296;-79
2022/01/04 05:10:57;;;;;;;;;;;7.80;99.90;;;;;;5017141;28;19928;-79
2022/01/04 05:13:23;;;;;;;;;;;7.80;99.90;;;;;;5033570;28;19975;-79
2022/01/04 05:15:48;;;;;;;;;;;7.80;99.90;;;;;;5033230;28;19921;-79
2022/01/04 05:18:15;;;;;;;;;;;7.80;99.90;;;;;;5016559;28;19921;-79
2022/01/04 05:20:40;;;;;;;;;;;7.80;99.90;;;;;;5033012;28;19955;-79
2022/01/04 05:23:06;;;;;;;;;;;7.70;99.90;;;;;;5016344;28;19921;-79
2022/01/04 05:25:31;;;;;;;;;;;7.70;99.90;;;;;;5033299;28;20011;-80
2022/01/04 05:27:57;;;;;;;;;;;7.70;99.90;;;;;;5016449;28;19929;-79
2022/01/04 05:30:22;;;;;;;;;;;7.60;99.90;;;;;;5032826;28;19921;-78
2022/01/04 05:32:48;;;;;;;;;;;7.60;99.90;;;;;;5032856;28;19922;-79
2022/01/04 05:35:13;;;;;;;;;;;7.60;99.90;;;;;;5016587;28;20357;-78
2022/01/04 05:37:38;;;;;;;;;;;7.60;99.90;;;;;;5016310;28;19979;-78
2022/01/04 05:40:04;;;;;;;;;;;7.50;99.90;;;;;;5016501;28;19948;-78
2022/01/04 05:42:30;;;;;;;;;;;7.60;99.90;;;;;;5032567;28;19944;-78
2022/01/04 05:44:55;;;;;;;;;;;7.60;99.90;;;;;;5015792;28;19924;-78
2022/01/04 05:47:21;;;;;;;;;;;7.60;99.90;;;;;;5016265;28;19921;-78
2022/01/04 05:49:46;;;;;;;;;;;7.60;99.90;;;;;;5016116;28;19921;-78
2022/01/04 05:52:11;;;;;;;;;;;7.60;99.90;;;;;;5031647;28;19975;-78
2022/01/04 05:54:37;;;;;;;;;;;7.60;99.90;;;;;;5032233;28;20293;-78
2022/01/04 05:57:03;;;;;;;;;;;7.60;99.90;;;;;;5016512;28;19944;-78
2022/01/04 05:59:28;;;;;;;;;;;7.50;99.90;;;;;;5032304;28;19928;-78
2022/01/04 06:01:53;;;;;;;;;;;7.50;99.90;;;;;;5016055;28;19921;-78
2022/01/04 06:04:19;;;;;;;;;;;7.50;99.90;;;;;;5032081;28;19928;-78
2022/01/04 06:06:44;;;;;;;;;;;7.50;99.90;;;;;;5032049;28;20011;-79
2022/01/04 06:09:19;;;;;;;;;;;7.50;99.90;;;;;;5015860;28;19926;-78
2022/01/04 06:14:50;;;;;;;;;;;7.50;99.90;;;;;;5032710;28;19939;-78
2022/01/04 06:17:15;;;;;;;;;;;7.50;99.90;;;;;;5031943;28;19928;-79
2022/01/04 06:19:40;;;;;;;;;;;7.50;99.90;;;;;;5032231;28;19946;-78
2022/01/04 06:22:06;;;;;;;;;;;7.50;99.90;;;;;;5032235;28;19928;-78
2022/01/04 06:24:31;;;;;;;;;;;7.50;99.90;;;;;;5031458;28;19944;-78
2022/01/04 06:26:57;;;;;;;;;;;7.50;99.90;;;;;;5032111;28;19925;-78
2022/01/04 06:29:22;;;;;;;;;;;7.40;99.90;;;;;;5031900;28;19925;-78
2022/01/04 06:31:48;;;;;;;;;;;7.40;99.90;;;;;;5015328;28;19928;-78
2022/01/04 06:34:14;;;;;;;;;;;7.50;99.90;;;;;;5031778;28;19921;-78
2022/01/04 06:36:39;;;;;;;;;;;7.50;99.90;;;;;;5031951;28;19928;-78
2022/01/04 06:39:05;;;;;;;;;;;7.50;99.90;;;;;;5031646;28;19921;-78
2022/01/04 06:41:31;;;;;;;;;;;7.50;99.90;;;;;;5031797;28;20328;-77
2022/01/04 06:43:56;;;;;;;;;;;7.50;99.90;;;;;;5014897;28;20031;-78
2022/01/04 06:46:23;;;;;;;;;;;7.40;99.90;;;;;;5031583;28;19921;-78
2022/01/04 06:48:48;;;;;;;;;;;7.40;99.90;;;;;;5015168;28;19983;-78
2022/01/04 06:51:14;;;;;;;;;;;7.40;99.90;;;;;;5031955;28;20344;-78
2022/01/04 06:53:39;;;;;;;;;;;7.40;99.90;;;;;;5031099;28;19964;-78
2022/01/04 06:56:05;;;;;;;;;;;7.40;99.90;;;;;;5031016;28;19995;-78
2022/01/04 06:58:30;;;;;;;;;;;7.40;99.90;;;;;;5031949;28;20349;-78
2022/01/04 07:00:56;;;;;;;;;;;7.40;99.90;;;;;;5031684;28;19927;-78
2022/01/04 07:03:21;;;;;;;;;;;7.50;99.90;;;;;;5013528;28;19921;-78
2022/01/04 07:05:47;;;;;;;;;;;7.40;99.90;;;;;;5031004;28;19960;-78
2022/01/04 07:08:12;;;;;;;;;;;7.40;99.90;;;;;;5031172;28;19925;-78
2022/01/04 07:10:38;;;;;;;;;;;7.50;99.90;;;;;;5014932;28;20030;-79
2022/01/04 07:13:03;;;;;;;;;;;7.50;99.90;;;;;;5030999;28;19921;-78
2022/01/04 07:15:29;;;;;;;;;;;7.50;99.90;;;;;;5031042;28;20067;-78
2022/01/04 07:17:54;;;;;;;;;;;7.50;99.90;;;;;;5014770;28;19925;-78
2022/01/04 07:20:20;;;;;;;;;;;7.50;99.90;;;;;;5031502;28;19921;-78
2022/01/04 07:22:45;;;;;;;;;;;7.50;99.90;;;;;;5031163;28;20266;-77
2022/01/04 07:25:10;;;;;;;;;;;7.50;99.90;;;;;;5014165;28;19921;-78
2022/01/04 07:27:36;;;;;;;;;;;7.50;99.90;;;;;;5014502;28;19925;-78
2022/01/04 07:30:02;;;;;;;;;;;7.60;99.90;;;;;;5014752;28;19928;-78
2022/01/04 07:32:28;;;;;;;;;;;7.60;99.90;;;;;;5030920;28;19979;-78
2022/01/04 07:34:53;;;;;;;;;;;7.60;99.90;;;;;;5013888;28;19960;-78
2022/01/04 07:37:19;;;;;;;;;;;7.60;99.90;;;;;;5014286;28;19921;-79
2022/01/04 07:39:44;;;;;;;;;;;7.60;99.90;;;;;;5012867;28;20282;-78
2022/01/04 07:42:10;;;;;;;;;;;7.60;99.90;;;;;;5030858;28;19928;-78
2022/01/04 07:44:35;;;;;;;;;;;7.60;99.90;;;;;;5013116;28;20246;-77
2022/01/04 07:47:01;;;;;;;;;;;7.60;99.90;;;;;;5014481;28;19976;-78
2022/01/04 07:49:26;;;;;;;;;;;7.60;99.90;;;;;;5030945;28;19925;-76
2022/01/04 07:51:52;;;;;;;;;;;7.60;99.90;;;;;;5030830;28;19929;-79
2022/01/04 07:54:18;;;;;;;;;;;7.60;99.90;;;;;;5030242;28;19920;-76
2022/01/04 07:56:43;;;;;;;;;;;7.60;99.90;;;;;;5014799;28;19929;-80
2022/01/04 07:59:09;;;;;;;;;;;7.60;99.90;;;;;;5011903;28;19928;-80
2022/01/04 08:01:34;;;;;;;;;;;7.60;99.90;;;;;;5013800;28;20344;-79
2022/01/04 08:04:00;;;;;;;;;;;7.60;99.90;;;;;;5013977;28;20012;-75
2022/01/04 08:06:26;;;;;;;;;;;7.60;99.90;;;;;;5030631;28;20389;-78
2022/01/04 08:08:51;;;;;;;;;;;7.50;99.90;;;;;;5029479;28;19979;-77
2022/01/04 08:11:18;;;;;;;;;;;7.50;99.90;;;;;;5014401;28;19925;-78
2022/01/04 08:13:44;;;;;;;;;;;7.50;99.90;;;;;;5013540;28;20007;-78
2022/01/04 08:16:09;;;;;;;;;;;7.50;99.90;;;;;;5017310;28;19968;-78
2022/01/04 08:18:35;;;;;;;;;;;7.50;99.90;;;;;;5018011;28;19921;-78
2022/01/04 08:21:03;;;;;;;;;;;7.50;99.90;;;;;;5018166;28;19947;-78
2022/01/04 08:23:30;;;;;;;;;;;7.50;99.90;;;;;;5017226;28;20442;-78
2022/01/04 08:25:56;;;;;;;;;;;7.50;99.90;;;;;;5012830;28;19922;-78
2022/01/04 08:28:21;;;;;;;;;;;7.50;99.90;;;;;;5001831;28;20124;-78
2022/01/04 08:30:47;;;;;;;;;;;7.40;99.90;;;;;;5033721;28;19925;-83
2022/01/04 08:33:13;;;;;;;;;;;7.40;99.90;;;;;;5018025;28;19928;-83
2022/01/04 08:35:38;;;;;;;;;;;7.40;99.90;;;;;;5034825;28;19921;-84
2022/01/04 08:38:05;;;;;;;;;;;7.40;99.90;;;;;;5018276;28;20396;-82
2022/01/04 08:40:30;;;;;;;;;;;7.40;99.90;;;;;;5018624;28;19921;-82
2022/01/04 08:42:56;;;;;;;;;;;7.40;99.90;;;;;;5018018;28;19927;-82
2022/01/04 08:45:23;;;;;;;;;;;7.50;99.90;;;;;;5035047;28;20320;-82
2022/01/04 08:47:49;;;;;;;;;;;7.50;99.90;;;;;;5018051;28;20049;-82
2022/01/04 08:50:15;;;;;;;;;;;7.50;99.90;;;;;;5018173;28;20011;-83
2022/01/04 08:52:41;;;;;;;;;;;7.50;99.90;;;;;;5017968;28;19976;-84
2022/01/04 08:55:07;;;;;;;;;;;7.60;99.90;;;;;;5017817;28;19930;-82
2022/01/04 08:57:33;;;;;;;;;;;7.60;99.90;;;;;;5033719;28;20274;-82
2022/01/04 08:59:58;;;;;;;;;;;7.60;99.90;;;;;;5017889;28;20384;-83
2022/01/04 09:02:24;;;;;;;;;;;7.60;99.90;;;;;;5017599;28;19921;-80
2022/01/04 09:04:50;;;;;;;;;;;7.60;99.90;;;;;;5016211;28;19921;-82
2022/01/04 09:07:16;;;;;;;;;;;7.60;99.90;;;;;;5017462;28;20028;-82
2022/01/04 09:09:41;;;;;;;;;;;7.70;99.90;;;;;;5017017;28;19972;-79
2022/01/04 09:12:07;;;;;;;;;;;7.60;99.90;;;;;;5016961;28;19925;-80
2022/01/04 09:20:01;;;;;;;;;;;7.60;99.90;;;;;;5021280;28;19928;-80
2022/01/04 09:22:27;;;;;;;;;;;7.60;99.90;;;;;;5046616;28;19949;-79
2022/01/04 09:24:52;;;;;;;;;;;7.40;99.90;;;;;;5045937;23;20300;-76
2022/01/04 09:27:18;;;;;;;;;;;7.30;99.90;;;;;;5015273;28;19951;-76
2022/01/04 09:29:44;;;;;;;;;;;7.10;99.90;;;;;;5000109;28;19925;-76
2022/01/04 09:32:13;;;;;;;;;;;7.00;99.90;;;;;;5000405;28;20313;-76
2022/01/04 09:34:39;;;;;;;;;;;6.80;99.90;;;;;;4989525;28;20003;-76
2022/01/04 09:37:05;;;;;;;;;;;6.80;99.90;;;;;;5013155;28;19921;-76
2022/01/04 09:39:31;;;;;;;;;;;6.70;99.90;;;;;;4980383;28;20301;-76
2022/01/04 09:41:56;;;;;;;;;;;6.70;99.90;;;;;;4979513;28;20340;-76
2022/01/04 09:44:22;;;;;;;;;;;6.60;99.90;;;;;;4996287;28;19922;-76
2022/01/04 09:46:48;;;;;;;;;;;6.60;99.90;;;;;;4980734;28;19957;-76
2022/01/04 09:49:14;;;;;;;;;;;6.60;99.90;;;;;;4980657;28;20410;-76
2022/01/04 09:51:40;;;;;;;;;;;6.60;99.90;;;;;;4979706;28;19925;-76
2022/01/04 09:54:06;;;;;;;;;;;6.70;99.90;;;;;;5012403;28;19929;-75
2022/01/04 09:56:31;;;;;;;;;;;6.70;99.90;;;;;;4996546;28;19933;-76
2022/01/04 09:58:57;;;;;;;;;;;6.70;99.90;;;;;;4996918;28;19922;-76
2022/01/04 10:01:24;;;;;;;;;;;6.70;99.90;;;;;;5012915;28;19921;-76
2022/01/04 10:03:50;;;;;;;;;;;6.70;99.90;;;;;;4979506;28;19928;-76
2022/01/04 10:06:16;;;;;;;;;;;6.70;99.90;;;;;;4979931;28;19979;-76
2022/01/04 10:08:52;;;;;;;;;;;6.80;99.90;;;;;;5012490;28;19929;-76
2022/01/04 10:11:27;;;;;;;;;;;6.80;99.90;;;;;;4980008;28;19929;-76
2022/01/04 10:13:53;;;;;;;;;;;6.90;99.90;;;;;;4996114;28;19926;-76
2022/01/04 10:16:18;;;;;;;;;;;6.90;99.90;;;;;;4980181;28;19967;-76
2022/01/04 10:18:50;;;;;;;;;;;7.00;99.90;;;;;;4979974;28;19958;-76
2022/01/04 10:21:16;;;;;;;;;;;6.90;99.90;;;;;;4979915;28;19922;-76
2022/01/04 10:23:49;;;;;;;;;;;6.90;99.90;;;;;;4979666;28;20332;-76
2022/01/04 10:26:15;;;;;;;;;;;7.00;99.90;;;;;;5011640;28;19928;-76
2022/01/04 10:28:45;;;;;;;;;;;7.10;99.90;;;;;;4979067;28;19925;-76
2022/01/04 10:31:19;;;;;;;;;;;7.20;99.90;;;;;;5028480;28;19945;-76
2022/01/04 10:33:51;;;;;;;;;;;7.20;99.90;;;;;;4995809;28;19921;-75
2022/01/04 10:36:19;;;;;;;;;;;7.20;99.90;;;;;;4995817;28;19921;-76
2022/01/04 10:38:46;;;;;;;;;;;7.20;99.90;;;;;;4995376;28;19922;-76
2022/01/04 10:41:15;;;;;;;;;;;7.20;99.90;;;;;;5012137;28;20011;-76
2022/01/04 10:43:43;;;;;;;;;;;7.20;99.90;;;;;;5028121;28;19922;-75
2022/01/04 10:46:10;;;;;;;;;;;7.20;99.90;;;;;;4979159;28;19975;-75
2022/01/04 10:48:41;;;;;;;;;;;7.20;99.90;;;;;;4979335;28;19933;-75
2022/01/04 10:51:11;;;;;;;;;;;7.10;99.90;;;;;;5012236;28;20296;-75
2022/01/04 10:53:38;;;;;;;;;;;7.10;99.90;;;;;;5011740;28;19925;-75
2022/01/04 10:56:07;;;;;;;;;;;7.10;99.90;;;;;;5011819;28;19928;-75
2022/01/04 10:58:36;;;;;;;;;;;7.00;99.90;;;;;;5011936;28;19922;-75
2022/01/04 11:01:03;;;;;;;;;;;7.00;99.90;;;;;;5011506;28;20409;-75
2022/01/04 11:03:30;;;;;;;;;;;7.00;99.90;;;;;;4978049;28;19984;-75
2022/01/04 11:06:01;;;;;;;;;;;7.00;99.90;;;;;;5010558;28;20219;-75
2022/01/04 11:08:28;;;;;;;;;;;6.90;99.90;;;;;;4978931;28;19954;-75
2022/01/04 11:10:55;;;;;;;;;;;6.90;99.90;;;;;;5010179;28;19936;-75
2022/01/04 11:13:21;;;;;;;;;;;6.90;99.90;;;;;;4967567;28;19922;-75
2022/01/04 11:15:47;;;;;;;;;;;6.80;99.90;;;;;;5011490;28;19921;-75
2022/01/04 11:18:12;;;;;;;;;;;6.80;99.90;;;;;;5006902;28;20380;-75
2022/01/04 11:20:39;;;;;;;;;;;6.80;99.90;;;;;;5015499;28;19921;-75
2022/01/04 11:23:05;;;;;;;;;;;6.70;99.90;;;;;;5011442;28;19921;-76
2022/01/04 11:25:38;;;;;;;;;;;6.70;99.90;;;;;;5010736;28;20296;-76
2022/01/04 11:28:09;;;;;;;;;;;6.70;99.90;;;;;;4979033;28;19925;-76
2022/01/04 11:30:54;;;;;;;;;;;6.80;99.90;;;;;;5011169;28;20335;-77
2022/01/04 11:33:27;;;;;;;;;;;6.80;99.90;;;;;;4978630;28;20297;-75
2022/01/04 11:35:53;;;;;;;;;;;6.70;99.90;;;;;;5009553;28;19922;-74
2022/01/04 11:38:36;;;;;;;;;;;6.70;99.90;;;;;;4977824;28;19928;-75
2022/01/04 11:41:02;;;;;;;;;;;6.60;99.90;;;;;;4976551;28;19968;-74
2022/01/04 11:43:28;;;;;;;;;;;6.60;99.90;;;;;;4994224;28;19988;-74
2022/01/04 11:45:54;;;;;;;;;;;6.50;99.90;;;;;;4978332;28;20056;-74
2022/01/04 11:48:31;;;;;;;;;;;6.50;99.90;;;;;;5010932;28;19925;-74
2022/01/04 11:50:57;;;;;;;;;;;6.40;99.90;;;;;;4990463;28;19968;-74
2022/01/04 11:53:23;;;;;;;;;;;6.30;99.90;;;;;;5027115;28;20389;-74
2022/01/04 11:55:52;;;;;;;;;;;6.30;99.90;;;;;;5027367;28;19929;-74
2022/01/04 11:58:20;;;;;;;;;;;6.30;99.90;;;;;;4978547;28;19921;-74
2022/01/04 12:01:06;;;;;;;;;;;6.10;99.90;;;;;;4977741;28;19929;-74
2022/01/04 12:03:37;;;;;;;;;;;6.00;99.90;;;;;;5011422;28;20064;-75
2022/01/04 12:06:05;;;;;;;;;;;5.90;99.90;;;;;;5010817;28;20416;-74
2022/01/04 12:08:34;;;;;;;;;;;5.80;99.90;;;;;;4977897;28;19937;-74
2022/01/04 12:10:59;;;;;;;;;;;5.80;99.90;;;;;;5010398;28;19921;-75
2022/01/04 12:13:25;;;;;;;;;;;5.80;99.90;;;;;;5022926;28;19921;-75
2022/01/04 12:15:57;;;;;;;;;;;5.80;99.90;;;;;;4995160;28;19921;-74
2022/01/04 12:18:22;;;;;;;;;;;5.70;99.90;;;;;;5003007;28;19922;-74
2022/01/04 12:20:53;;;;;;;;;;;5.70;99.90;;;;;;4993944;28;19929;-74
2022/01/04 12:23:35;;;;;;;;;;;5.70;99.90;;;;;;4993849;28;19921;-75
2022/01/04 12:28:30;;;;;;;;;;;5.70;99.90;;;;;;5027097;28;19992;-75
2022/01/04 12:31:17;;;;;;;;;;;5.70;99.90;;;;;;4977700;28;20456;-75
2022/01/04 12:33:47;;;;;;;;;;;5.70;99.90;;;;;;4994480;28;19921;-75
2022/01/04 12:36:33;;;;;;;;;;;5.70;99.90;;;;;;4994582;28;20374;-75
2022/01/04 12:39:03;;;;;;;;;;;5.70;99.90;;;;;;5010655;28;19928;-75
2022/01/04 12:41:30;;;;;;;;;;;5.60;99.90;;;;;;5010216;28;19922;-75
2022/01/04 12:43:56;;;;;;;;;;;5.60;99.90;;;;;;4976989;28;20015;-75
2022/01/04 12:46:29;;;;;;;;;;;5.60;99.90;;;;;;4977734;28;19968;-75
2022/01/04 12:49:04;;;;;;;;;;;5.60;99.90;;;;;;5027208;28;20297;-75
2022/01/04 12:51:34;;;;;;;;;;;5.60;99.90;;;;;;5009196;28;19921;-75
2022/01/04 12:54:01;;;;;;;;;;;5.60;99.90;;;;;;4993412;28;19929;-75
2022/01/04 12:56:27;;;;;;;;;;;5.70;99.90;;;;;;4992797;28;19929;-75
2022/01/04 12:58:53;;;;;;;;;;;5.80;99.90;;;;;;5010316;28;19921;-74
2022/01/04 13:01:27;;;;;;;;;;;5.80;99.90;;;;;;4994674;28;19927;-75
2022/01/04 13:03:52;;;;;;;;;;;5.70;99.90;;;;;;4997155;28;19928;-74
2022/01/04 13:06:18;;;;;;;;;;;5.70;99.90;;;;;;5001841;28;19968;-74
2022/01/04 13:08:51;;;;;;;;;;;5.60;99.90;;;;;;5000647;28;20277;-74
2022/01/04 13:11:17;;;;;;;;;;;5.70;99.90;;;;;;5024005;28;19928;-74
2022/01/04 13:13:43;;;;;;;;;;;5.70;99.90;;;;;;5010124;28;19921;-74
2022/01/04 13:16:29;;;;;;;;;;;5.60;99.90;;;;;;4997305;28;20371;-74
2022/01/04 13:19:10;;;;;;;;;;;5.60;99.90;;;;;;4961888;28;20356;-74
2022/01/04 13:21:36;;;;;;;;;;;5.60;99.90;;;;;;5026580;28;20389;-74
2022/01/04 13:24:01;;;;;;;;;;;5.60;99.90;;;;;;5046171;28;19932;-74
2022/01/04 13:26:27;;;;;;;;;;;5.60;99.90;;;;;;4996906;28;19967;-74
2022/01/04 13:28:53;;;;;;;;;;;5.60;99.90;;;;;;4997156;28;19932;-74
2022/01/04 13:31:19;;;;;;;;;;;5.60;99.90;;;;;;5029945;28;20381;-75
2022/01/04 13:33:44;;;;;;;;;;;5.70;99.90;;;;;;5012935;28;19921;-75
2022/01/04 13:36:10;;;;;;;;;;;5.70;99.90;;;;;;5009327;28;20369;-75
2022/01/04 13:38:36;;;;;;;;;;;5.70;99.90;;;;;;4987645;28;19929;-74
2022/01/04 13:41:03;;;;;;;;;;;5.60;99.90;;;;;;5013492;28;20353;-75
2022/01/04 13:43:35;;;;;;;;;;;5.60;99.90;;;;;;4980938;28;20293;-75
2022/01/04 13:46:10;;;;;;;;;;;5.60;99.90;;;;;;5013772;28;19921;-75
2022/01/04 13:48:39;;;;;;;;;;;5.60;99.90;;;;;;4995502;28;20385;-75
2022/01/04 13:51:06;;;;;;;;;;;5.60;99.90;;;;;;4979237;28;20067;-75
2022/01/04 13:53:38;;;;;;;;;;;5.60;99.90;;;;;;5008928;28;20305;-75
2022/01/04 13:56:10;;;;;;;;;;;5.60;99.90;;;;;;4996605;28;19921;-75
2022/01/04 13:58:38;;;;;;;;;;;5.60;99.90;;;;;;4996739;28;19922;-74
2022/01/04 14:01:10;;;;;;;;;;;5.60;99.90;;;;;;4995798;28;19927;-74
2022/01/04 14:03:36;;;;;;;;;;;5.60;99.90;;;;;;4995716;28;19926;-75
2022/01/04 14:06:02;;;;;;;;;;;5.50;99.90;;;;;;5012645;28;20267;-75
2022/01/04 14:08:49;;;;;;;;;;;5.40;99.90;;;;;;4980147;28;19976;-75
2022/01/04 14:11:28;;;;;;;;;;;5.30;99.90;;;;;;4979860;28;20380;-74
2022/01/04 14:13:54;;;;;;;;;;;5.20;99.90;;;;;;5011449;28;19921;-74
2022/01/04 14:16:21;;;;;;;;;;;5.10;99.90;;;;;;4979747;28;20008;-74
2022/01/04 14:19:08;;;;;;;;;;;5.00;99.90;;;;;;4995326;28;19921;-77
2022/01/04 14:21:35;;;;;;;;;;;4.90;99.90;;;;;;5011894;28;19955;-74
2022/01/04 14:24:03;;;;;;;;;;;4.80;99.90;;;;;;4995972;28;20056;-74
2022/01/04 14:26:28;;;;;;;;;;;4.70;99.90;;;;;;4996152;28;20409;-74
2022/01/04 14:28:55;;;;;;;;;;;4.70;99.90;;;;;;4994797;28;19933;-76
2022/01/04 14:31:21;;;;;;;;;;;4.70;99.90;;;;;;5011714;28;20008;-74
2022/01/04 14:33:46;;;;;;;;;;;4.70;99.90;;;;;;5012128;28;20023;-76
2022/01/04 14:36:12;;;;;;;;;;;4.70;99.90;;;;;;4978077;28;19921;-74
2022/01/04 14:38:38;;;;;;;;;;;4.70;99.90;;;;;;4978276;28;20044;-76
2022/01/04 14:41:11;;;;;;;;;;;4.70;99.90;;;;;;4977847;28;19968;-75
2022/01/04 14:43:37;;;;;;;;;;;4.60;99.90;;;;;;4994905;28;19929;-76